sensor_id;sensor_type;location;lat;lon;timestamp;temperature;humidity
31113;DHT22;17763;48.730;9.136;2023-07-20T00:00:09;19.70;66.30
31113;DHT22;17763;48.730;9.136;2023-07-20T00:02:34;19.60;65.90
31113;DHT22;17763;48.730;9.136;2023-07-20T00:05:00;19.50;65.60
31113;DHT22;17763;48.730;9.136;2023-07-20T00:07:25;19.50;65.90
31113;DHT22;17763;48.730;9.136;2023-07-20T00:09:51;19.50;65.80
31113;DHT22;17763;48.730;9.136;2023-07-20T00:12:19;19.40;66.20
31113;DHT22;17763;48.730;9.136;2023-07-20T00:14:44;19.30;66.50
31113;DHT22;17763;48.730;9.136;2023-07-20T00:17:12;19.30;66.20
31113;DHT22;17763;48.730;9.136;2023-07-20T00:19:38;19.30;66.10
31113;DHT22;17763;48.730;9.136;2023-07-20T00:22:04;19.20;66.20
31113;DHT22;17763;48.730;9.136;2023-07-20T00:24:30;19.20;66.60
31113;DHT22;17763;48.730;9.136;2023-07-20T00:26:56;19.10;66.50
31113;DHT22;17763;48.730;9.136;2023-07-20T00:29:22;19.10;66.90
31113;DHT22;17763;48.730;9.136;2023-07-20T00:31:47;19.10;66.60
31113;DHT22;17763;48.730;9.136;2023-07-20T00:34:21;19.10;66.50
31113;DHT22;17763;48.730;9.136;2023-07-20T00:36:49;19.10;66.30
31113;DHT22;17763;48.730;9.136;2023-07-20T00:39:15;19.00;67.20
31113;DHT22;17763;48.730;9.136;2023-07-20T00:41:40;19.00;66.90
31113;DHT22;17763;48.730;9.136;2023-07-20T00:44:06;19.00;66.80
31113;DHT22;17763;48.730;9.136;2023-07-20T00:46:32;19.00;66.50
31113;DHT22;17763;48.730;9.136;2023-07-20T00:49:00;18.90;66.60
31113;DHT22;17763;48.730;9.136;2023-07-20T00:51:29;18.90;67.70
31113;DHT22;17763;48.730;9.136;2023-07-20T00:53:55;19.00;67.40
31113;DHT22;17763;48.730;9.136;2023-07-20T00:56:22;19.00;67.10
31113;DHT22;17763;48.730;9.136;2023-07-20T00:58:47;19.00;67.30
31113;DHT22;17763;48.730;9.136;2023-07-20T01:01:16;19.00;67.00
31113;DHT22;17763;48.730;9.136;2023-07-20T01:03:41;19.00;67.00
31113;DHT22;17763;48.730;9.136;2023-07-20T01:11:59;18.80;67.40
31113;DHT22;17763;48.730;9.136;2023-07-20T01:14:26;18.80;67.10
31113;DHT22;17763;48.730;9.136;2023-07-20T01:16:54;18.80;67.30
31113;DHT22;17763;48.730;9.136;2023-07-20T01:19:24;18.70;67.40
31113;DHT22;17763;48.730;9.136;2023-07-20T01:21:52;18.70;67.70
31113;DHT22;17763;48.730;9.136;2023-07-20T01:32:34;18.50;68.30
31113;DHT22;17763;48.730;9.136;2023-07-20T01:35:01;18.40;68.60
31113;DHT22;17763;48.730;9.136;2023-07-20T01:37:27;18.40;69.10
31113;DHT22;17763;48.730;9.136;2023-07-20T01:39:55;18.40;68.90
31113;DHT22;17763;48.730;9.136;2023-07-20T01:42:24;18.40;69.00
31113;DHT22;17763;48.730;9.136;2023-07-20T01:44:55;18.30;69.10
31113;DHT22;17763;48.730;9.136;2023-07-20T01:47:20;18.30;69.50
31113;DHT22;17763;48.730;9.136;2023-07-20T01:49:46;18.30;69.60
31113;DHT22;17763;48.730;9.136;2023-07-20T01:52:12;18.20;69.70
31113;DHT22;17763;48.730;9.136;2023-07-20T01:54:40;18.20;69.90
31113;DHT22;17763;48.730;9.136;2023-07-20T01:57:05;18.10;70.00
31113;DHT22;17763;48.730;9.136;2023-07-20T01:59:31;18.10;70.10
31113;DHT22;17763;48.730;9.136;2023-07-20T02:01:56;18.10;70.20
31113;DHT22;17763;48.730;9.136;2023-07-20T02:04:22;18.10;70.90
31113;DHT22;17763;48.730;9.136;2023-07-20T02:06:48;18.00;70.90
31113;DHT22;17763;48.730;9.136;2023-07-20T02:09:13;18.10;71.00
31113;DHT22;17763;48.730;9.136;2023-07-20T02:11:39;18.10;71.00
31113;DHT22;17763;48.730;9.136;2023-07-20T02:14:05;18.00;71.00
31113;DHT22;17763;48.730;9.136;2023-07-20T02:16:30;18.00;71.40
31113;DHT22;17763;48.730;9.136;2023-07-20T02:18:58;18.00;71.70
31113;DHT22;17763;48.730;9.136;2023-07-20T02:21:24;17.90;71.70
31113;DHT22;17763;48.730;9.136;2023-07-20T02:23:49;18.00;71.60
31113;DHT22;17763;48.730;9.136;2023-07-20T02:26:18;17.90;71.90
31113;DHT22;17763;48.730;9.136;2023-07-20T02:28:46;17.90;72.00
31113;DHT22;17763;48.730;9.136;2023-07-20T02:31:11;17.90;72.10
31113;DHT22;17763;48.730;9.136;2023-07-20T02:33:37;17.80;72.50
31113;DHT22;17763;48.730;9.136;2023-07-20T02:36:03;17.80;72.40
31113;DHT22;17763;48.730;9.136;2023-07-20T02:38:28;17.70;72.90
31113;DHT22;17763;48.730;9.136;2023-07-20T02:40:54;17.70;72.80
31113;DHT22;17763;48.730;9.136;2023-07-20T02:43:20;17.70;72.80
31113;DHT22;17763;48.730;9.136;2023-07-20T02:45:45;17.70;73.20
31113;DHT22;17763;48.730;9.136;2023-07-20T02:48:11;17.70;73.20
31113;DHT22;17763;48.730;9.136;2023-07-20T02:50:39;17.60;73.40
31113;DHT22;17763;48.730;9.136;2023-07-20T02:53:07;17.60;73.70
31113;DHT22;17763;48.730;9.136;2023-07-20T02:55:33;17.60;73.40
31113;DHT22;17763;48.730;9.136;2023-07-20T02:57:58;17.50;73.30
31113;DHT22;17763;48.730;9.136;2023-07-20T03:00:24;17.50;73.90
31113;DHT22;17763;48.730;9.136;2023-07-20T03:02:50;17.60;73.80
31113;DHT22;17763;48.730;9.136;2023-07-20T03:05:18;17.50;73.80
31113;DHT22;17763;48.730;9.136;2023-07-20T03:07:43;17.50;73.80
31113;DHT22;17763;48.730;9.136;2023-07-20T03:10:10;17.50;74.00
31113;DHT22;17763;48.730;9.136;2023-07-20T03:12:36;17.50;74.40
31113;DHT22;17763;48.730;9.136;2023-07-20T03:15:02;17.50;74.20
31113;DHT22;17763;48.730;9.136;2023-07-20T03:17:28;17.50;74.10
31113;DHT22;17763;48.730;9.136;2023-07-20T03:19:53;17.60;74.40
31113;DHT22;17763;48.730;9.136;2023-07-20T03:22:19;17.50;74.40
31113;DHT22;17763;48.730;9.136;2023-07-20T03:24:46;17.60;74.60
31113;DHT22;17763;48.730;9.136;2023-07-20T03:27:12;17.50;74.60
31113;DHT22;17763;48.730;9.136;2023-07-20T03:29:38;17.50;74.50
31113;DHT22;17763;48.730;9.136;2023-07-20T03:32:04;17.40;74.80
31113;DHT22;17763;48.730;9.136;2023-07-20T03:34:30;17.40;74.60
31113;DHT22;17763;48.730;9.136;2023-07-20T03:36:58;17.40;75.00
31113;DHT22;17763;48.730;9.136;2023-07-20T03:39:24;17.30;75.00
31113;DHT22;17763;48.730;9.136;2023-07-20T03:41:50;17.40;75.30
31113;DHT22;17763;48.730;9.136;2023-07-20T03:44:15;17.40;75.20
31113;DHT22;17763;48.730;9.136;2023-07-20T03:46:44;17.40;75.40
31113;DHT22;17763;48.730;9.136;2023-07-20T03:49:16;17.40;75.30
31113;DHT22;17763;48.730;9.136;2023-07-20T03:51:41;17.40;75.50
31113;DHT22;17763;48.730;9.136;2023-07-20T03:54:09;17.40;75.70
31113;DHT22;17763;48.730;9.136;2023-07-20T03:56:35;17.30;75.60
31113;DHT22;17763;48.730;9.136;2023-07-20T03:59:05;17.30;76.00
31113;DHT22;17763;48.730;9.136;2023-07-20T04:01:31;17.30;76.10
31113;DHT22;17763;48.730;9.136;2023-07-20T04:04:04;17.40;75.80
31113;DHT22;17763;48.730;9.136;2023-07-20T04:06:33;17.60;75.50
31113;DHT22;17763;48.730;9.136;2023-07-20T04:08:58;17.70;75.10
31113;DHT22;17763;48.730;9.136;2023-07-20T04:11:24;17.70;75.20
31113;DHT22;17763;48.730;9.136;2023-07-20T04:13:52;17.60;75.40
31113;DHT22;17763;48.730;9.136;2023-07-20T04:16:18;17.60;75.60
31113;DHT22;17763;48.730;9.136;2023-07-20T04:18:47;17.60;75.80
31113;DHT22;17763;48.730;9.136;2023-07-20T04:21:13;17.70;76.00
31113;DHT22;17763;48.730;9.136;2023-07-20T04:23:39;17.90;75.70
31113;DHT22;17763;48.730;9.136;2023-07-20T04:26:07;18.40;74.30
31113;DHT22;17763;48.730;9.136;2023-07-20T04:28:33;19.00;72.90
31113;DHT22;17763;48.730;9.136;2023-07-20T04:31:15;18.80;72.60
31113;DHT22;17763;48.730;9.136;2023-07-20T04:33:41;18.70;73.20
31113;DHT22;17763;48.730;9.136;2023-07-20T04:36:07;18.70;73.30
31113;DHT22;17763;48.730;9.136;2023-07-20T04:38:33;18.60;73.90
31113;DHT22;17763;48.730;9.136;2023-07-20T04:41:01;18.60;73.50
31113;DHT22;17763;48.730;9.136;2023-07-20T04:43:29;18.50;73.80
31113;DHT22;17763;48.730;9.136;2023-07-20T04:45:54;18.40;73.70
31113;DHT22;17763;48.730;9.136;2023-07-20T04:48:20;18.40;74.30
31113;DHT22;17763;48.730;9.136;2023-07-20T04:50:45;18.60;74.20
31113;DHT22;17763;48.730;9.136;2023-07-20T04:53:12;18.60;73.90
31113;DHT22;17763;48.730;9.136;2023-07-20T04:55:48;18.60;74.10
31113;DHT22;17763;48.730;9.136;2023-07-20T04:58:20;18.60;73.60
31113;DHT22;17763;48.730;9.136;2023-07-20T05:00:47;18.60;74.00
31113;DHT22;17763;48.730;9.136;2023-07-20T05:03:13;18.70;74.10
31113;DHT22;17763;48.730;9.136;2023-07-20T05:05:41;18.80;74.00
31113;DHT22;17763;48.730;9.136;2023-07-20T05:08:07;18.90;73.10
31113;DHT22;17763;48.730;9.136;2023-07-20T05:10:35;18.80;73.10
31113;DHT22;17763;48.730;9.136;2023-07-20T05:13:03;18.80;73.40
31113;DHT22;17763;48.730;9.136;2023-07-20T05:15:28;18.70;73.90
31113;DHT22;17763;48.730;9.136;2023-07-20T05:17:54;18.80;74.30
31113;DHT22;17763;48.730;9.136;2023-07-20T05:20:22;18.90;74.20
31113;DHT22;17763;48.730;9.136;2023-07-20T05:22:48;18.90;73.70
31113;DHT22;17763;48.730;9.136;2023-07-20T05:25:13;18.90;73.70
31113;DHT22;17763;48.730;9.136;2023-07-20T05:27:42;18.90;73.30
31113;DHT22;17763;48.730;9.136;2023-07-20T05:30:10;18.80;73.50
31113;DHT22;17763;48.730;9.136;2023-07-20T05:32:36;18.90;73.30
31113;DHT22;17763;48.730;9.136;2023-07-20T05:35:04;19.10;73.60
31113;DHT22;17763;48.730;9.136;2023-07-20T05:37:30;19.10;73.50
31113;DHT22;17763;48.730;9.136;2023-07-20T05:39:57;19.10;73.40
31113;DHT22;17763;48.730;9.136;2023-07-20T05:42:23;19.10;73.30
31113;DHT22;17763;48.730;9.136;2023-07-20T05:44:48;19.10;73.40
31113;DHT22;17763;48.730;9.136;2023-07-20T05:47:15;19.20;73.50
31113;DHT22;17763;48.730;9.136;2023-07-20T05:49:41;19.20;73.00
31113;DHT22;17763;48.730;9.136;2023-07-20T05:52:12;19.20;73.30
31113;DHT22;17763;48.730;9.136;2023-07-20T05:54:38;19.20;73.70
31113;DHT22;17763;48.730;9.136;2023-07-20T05:57:04;19.20;73.50
31113;DHT22;17763;48.730;9.136;2023-07-20T05:59:30;19.30;74.60
31113;DHT22;17763;48.730;9.136;2023-07-20T06:01:56;19.40;73.30
31113;DHT22;17763;48.730;9.136;2023-07-20T06:04:23;19.50;73.50
31113;DHT22;17763;48.730;9.136;2023-07-20T06:06:52;19.60;73.40
31113;DHT22;17763;48.730;9.136;2023-07-20T06:09:17;19.70;73.50
31113;DHT22;17763;48.730;9.136;2023-07-20T06:11:43;19.80;72.40
31113;DHT22;17763;48.730;9.136;2023-07-20T06:14:08;19.60;72.50
31113;DHT22;17763;48.730;9.136;2023-07-20T06:16:34;19.40;73.20
31113;DHT22;17763;48.730;9.136;2023-07-20T06:19:00;19.40;73.50
31113;DHT22;17763;48.730;9.136;2023-07-20T06:21:26;19.50;73.80
31113;DHT22;17763;48.730;9.136;2023-07-20T06:23:51;19.50;73.50
31113;DHT22;17763;48.730;9.136;2023-07-20T06:26:19;19.40;73.80
31113;DHT22;17763;48.730;9.136;2023-07-20T06:28:49;19.50;74.30
31113;DHT22;17763;48.730;9.136;2023-07-20T06:31:16;19.60;75.00
31113;DHT22;17763;48.730;9.136;2023-07-20T06:33:42;19.80;75.20
31113;DHT22;17763;48.730;9.136;2023-07-20T06:36:07;19.70;73.90
31113;DHT22;17763;48.730;9.136;2023-07-20T06:38:33;19.40;75.20
31113;DHT22;17763;48.730;9.136;2023-07-20T06:40:58;19.90;74.00
31113;DHT22;17763;48.730;9.136;2023-07-20T06:43:24;19.90;73.90
31113;DHT22;17763;48.730;9.136;2023-07-20T06:45:53;20.00;73.90
31113;DHT22;17763;48.730;9.136;2023-07-20T06:48:22;20.00;73.60
31113;DHT22;17763;48.730;9.136;2023-07-20T06:50:47;20.00;74.00
31113;DHT22;17763;48.730;9.136;2023-07-20T06:53:13;20.00;73.80
31113;DHT22;17763;48.730;9.136;2023-07-20T06:55:39;20.00;74.00
31113;DHT22;17763;48.730;9.136;2023-07-20T06:58:04;20.10;74.00
31113;DHT22;17763;48.730;9.136;2023-07-20T07:00:30;20.10;73.20
31113;DHT22;17763;48.730;9.136;2023-07-20T07:02:56;20.20;73.30
31113;DHT22;17763;48.730;9.136;2023-07-20T07:05:21;20.30;73.50
31113;DHT22;17763;48.730;9.136;2023-07-20T07:07:47;20.40;72.00
31113;DHT22;17763;48.730;9.136;2023-07-20T07:10:13;20.60;72.60
31113;DHT22;17763;48.730;9.136;2023-07-20T07:12:41;20.70;71.70
31113;DHT22;17763;48.730;9.136;2023-07-20T07:15:10;20.90;71.20
31113;DHT22;17763;48.730;9.136;2023-07-20T07:17:36;20.90;71.10
31113;DHT22;17763;48.730;9.136;2023-07-20T07:20:02;21.30;71.30
31113;DHT22;17763;48.730;9.136;2023-07-20T07:22:29;21.30;70.40
31113;DHT22;17763;48.730;9.136;2023-07-20T07:24:55;21.50;69.20
31113;DHT22;17763;48.730;9.136;2023-07-20T07:27:23;21.60;69.80
31113;DHT22;17763;48.730;9.136;2023-07-20T07:29:53;21.70;69.30
31113;DHT22;17763;48.730;9.136;2023-07-20T07:32:20;21.90;68.80
31113;DHT22;17763;48.730;9.136;2023-07-20T07:34:48;22.00;67.90
31113;DHT22;17763;48.730;9.136;2023-07-20T07:37:14;21.90;68.60
31113;DHT22;17763;48.730;9.136;2023-07-20T07:39:40;21.70;68.20
31113;DHT22;17763;48.730;9.136;2023-07-20T07:42:08;21.70;68.90
31113;DHT22;17763;48.730;9.136;2023-07-20T07:44:36;22.00;68.10
31113;DHT22;17763;48.730;9.136;2023-07-20T07:47:02;21.90;68.20
31113;DHT22;17763;48.730;9.136;2023-07-20T07:49:27;21.90;67.80
31113;DHT22;17763;48.730;9.136;2023-07-20T07:51:53;21.80;67.60
31113;DHT22;17763;48.730;9.136;2023-07-20T07:54:21;21.70;68.10
31113;DHT22;17763;48.730;9.136;2023-07-20T07:56:47;21.80;68.20
31113;DHT22;17763;48.730;9.136;2023-07-20T07:59:12;21.60;67.70
31113;DHT22;17763;48.730;9.136;2023-07-20T08:01:38;21.50;68.00
31113;DHT22;17763;48.730;9.136;2023-07-20T08:04:06;21.50;68.00
31113;DHT22;17763;48.730;9.136;2023-07-20T08:06:34;21.50;67.80
31113;DHT22;17763;48.730;9.136;2023-07-20T08:09:02;21.50;67.60
31113;DHT22;17763;48.730;9.136;2023-07-20T08:11:28;21.80;68.00
31113;DHT22;17763;48.730;9.136;2023-07-20T08:13:56;22.00;66.90
31113;DHT22;17763;48.730;9.136;2023-07-20T08:16:24;22.10;66.70
31113;DHT22;17763;48.730;9.136;2023-07-20T08:18:50;22.30;66.20
31113;DHT22;17763;48.730;9.136;2023-07-20T08:21:16;22.60;66.20
31113;DHT22;17763;48.730;9.136;2023-07-20T08:23:42;22.50;64.80
31113;DHT22;17763;48.730;9.136;2023-07-20T08:26:10;22.30;63.60
31113;DHT22;17763;48.730;9.136;2023-07-20T08:28:36;22.40;64.70
31113;DHT22;17763;48.730;9.136;2023-07-20T08:31:01;22.60;64.20
31113;DHT22;17763;48.730;9.136;2023-07-20T08:33:28;22.60;63.40
31113;DHT22;17763;48.730;9.136;2023-07-20T08:35:58;22.60;63.00
31113;DHT22;17763;48.730;9.136;2023-07-20T08:38:24;22.50;62.70
31113;DHT22;17763;48.730;9.136;2023-07-20T08:40:51;22.30;62.60
31113;DHT22;17763;48.730;9.136;2023-07-20T08:43:19;22.40;63.80
31113;DHT22;17763;48.730;9.136;2023-07-20T08:45:46;22.40;63.90
31113;DHT22;17763;48.730;9.136;2023-07-20T08:48:14;22.30;63.90
31113;DHT22;17763;48.730;9.136;2023-07-20T08:50:41;22.30;63.40
31113;DHT22;17763;48.730;9.136;2023-07-20T08:53:08;22.20;64.30
31113;DHT22;17763;48.730;9.136;2023-07-20T08:55:39;22.30;64.40
31113;DHT22;17763;48.730;9.136;2023-07-20T08:58:05;22.30;63.80
31113;DHT22;17763;48.730;9.136;2023-07-20T09:00:36;22.40;64.00
31113;DHT22;17763;48.730;9.136;2023-07-20T09:03:03;22.50;64.00
31113;DHT22;17763;48.730;9.136;2023-07-20T09:05:29;22.80;63.00
31113;DHT22;17763;48.730;9.136;2023-07-20T09:07:55;23.00;63.00
31113;DHT22;17763;48.730;9.136;2023-07-20T09:10:24;23.30;62.00
31113;DHT22;17763;48.730;9.136;2023-07-20T09:12:52;23.30;62.10
31113;DHT22;17763;48.730;9.136;2023-07-20T09:15:19;23.10;59.70
31113;DHT22;17763;48.730;9.136;2023-07-20T09:17:51;23.00;60.90
31113;DHT22;17763;48.730;9.136;2023-07-20T09:20:20;22.80;60.20
31113;DHT22;17763;48.730;9.136;2023-07-20T09:22:52;22.90;61.20
31113;DHT22;17763;48.730;9.136;2023-07-20T09:25:19;23.20;60.80
31113;DHT22;17763;48.730;9.136;2023-07-20T09:27:49;23.40;59.60
31113;DHT22;17763;48.730;9.136;2023-07-20T09:30:15;23.10;60.30
31113;DHT22;17763;48.730;9.136;2023-07-20T09:32:48;22.90;60.30
31113;DHT22;17763;48.730;9.136;2023-07-20T09:35:17;22.70;60.20
31113;DHT22;17763;48.730;9.136;2023-07-20T09:38:01;22.60;60.70
31113;DHT22;17763;48.730;9.136;2023-07-20T09:40:28;22.50;61.30
31113;DHT22;17763;48.730;9.136;2023-07-20T09:42:54;22.40;61.40
31113;DHT22;17763;48.730;9.136;2023-07-20T09:45:58;22.30;61.10
31113;DHT22;17763;48.730;9.136;2023-07-20T09:48:26;22.30;61.10
31113;DHT22;17763;48.730;9.136;2023-07-20T09:50:56;22.20;60.50
31113;DHT22;17763;48.730;9.136;2023-07-20T09:53:24;22.30;60.80
31113;DHT22;17763;48.730;9.136;2023-07-20T09:55:50;22.30;59.80
31113;DHT22;17763;48.730;9.136;2023-07-20T09:58:17;22.40;59.50
31113;DHT22;17763;48.730;9.136;2023-07-20T10:00:44;22.50;59.70
31113;DHT22;17763;48.730;9.136;2023-07-20T10:03:20;22.70;59.00
31113;DHT22;17763;48.730;9.136;2023-07-20T10:05:56;22.70;58.80
31113;DHT22;17763;48.730;9.136;2023-07-20T10:08:24;23.00;59.40
31113;DHT22;17763;48.730;9.136;2023-07-20T10:10:52;23.20;58.60
31113;DHT22;17763;48.730;9.136;2023-07-20T10:13:25;23.50;58.10
31113;DHT22;17763;48.730;9.136;2023-07-20T10:15:56;23.70;57.00
31113;DHT22;17763;48.730;9.136;2023-07-20T10:20:51;23.50;56.50
31113;DHT22;17763;48.730;9.136;2023-07-20T10:23:19;23.40;57.80
31113;DHT22;17763;48.730;9.136;2023-07-20T10:25:49;23.30;58.30
31113;DHT22;17763;48.730;9.136;2023-07-20T10:28:15;23.40;58.70
31113;DHT22;17763;48.730;9.136;2023-07-20T10:30:41;23.20;58.60
31113;DHT22;17763;48.730;9.136;2023-07-20T10:33:10;23.30;57.60
31113;DHT22;17763;48.730;9.136;2023-07-20T10:36:02;23.40;57.90
31113;DHT22;17763;48.730;9.136;2023-07-20T10:41:04;23.30;56.60
31113;DHT22;17763;48.730;9.136;2023-07-20T10:43:43;23.30;57.00
31113;DHT22;17763;48.730;9.136;2023-07-20T10:46:11;23.50;57.40
31113;DHT22;17763;48.730;9.136;2023-07-20T10:49:02;23.60;56.90
31113;DHT22;17763;48.730;9.136;2023-07-20T10:51:28;23.70;56.90
31113;DHT22;17763;48.730;9.136;2023-07-20T10:53:59;23.70;55.60
31113;DHT22;17763;48.730;9.136;2023-07-20T10:56:27;23.50;55.20
31113;DHT22;17763;48.730;9.136;2023-07-20T10:59:18;23.40;55.80
31113;DHT22;17763;48.730;9.136;2023-07-20T11:01:48;23.30;55.50
31113;DHT22;17763;48.730;9.136;2023-07-20T11:04:17;23.40;55.50
31113;DHT22;17763;48.730;9.136;2023-07-20T11:06:55;23.60;56.30
31113;DHT22;17763;48.730;9.136;2023-07-20T11:09:22;23.60;54.80
31113;DHT22;17763;48.730;9.136;2023-07-20T11:12:13;23.50;54.00
31113;DHT22;17763;48.730;9.136;2023-07-20T11:14:57;23.50;54.50
31113;DHT22;17763;48.730;9.136;2023-07-20T11:17:37;23.50;53.90
31113;DHT22;17763;48.730;9.136;2023-07-20T11:20:04;23.60;53.80
31113;DHT22;17763;48.730;9.136;2023-07-20T11:22:33;23.50;54.30
31113;DHT22;17763;48.730;9.136;2023-07-20T11:24:59;23.80;54.50
31113;DHT22;17763;48.730;9.136;2023-07-20T11:27:25;23.90;56.10
31113;DHT22;17763;48.730;9.136;2023-07-20T11:29:53;24.00;53.20
31113;DHT22;17763;48.730;9.136;2023-07-20T11:32:23;23.90;52.70
31113;DHT22;17763;48.730;9.136;2023-07-20T11:34:53;24.00;54.00
31113;DHT22;17763;48.730;9.136;2023-07-20T11:37:19;24.10;52.90
31113;DHT22;17763;48.730;9.136;2023-07-20T11:39:45;24.10;52.60
31113;DHT22;17763;48.730;9.136;2023-07-20T11:42:11;24.10;52.70
31113;DHT22;17763;48.730;9.136;2023-07-20T11:44:38;24.20;54.30
31113;DHT22;17763;48.730;9.136;2023-07-20T11:47:15;24.10;53.60
31113;DHT22;17763;48.730;9.136;2023-07-20T11:49:44;24.10;52.60
31113;DHT22;17763;48.730;9.136;2023-07-20T11:52:15;24.00;53.80
31113;DHT22;17763;48.730;9.136;2023-07-20T11:54:42;24.10;52.80
31113;DHT22;17763;48.730;9.136;2023-07-20T11:57:17;24.00;50.50
31113;DHT22;17763;48.730;9.136;2023-07-20T11:59:53;24.00;52.00
31113;DHT22;17763;48.730;9.136;2023-07-20T12:02:23;24.00;51.50
31113;DHT22;17763;48.730;9.136;2023-07-20T12:04:51;24.00;51.50
31113;DHT22;17763;48.730;9.136;2023-07-20T12:07:18;24.00;50.80
31113;DHT22;17763;48.730;9.136;2023-07-20T12:10:02;24.00;51.20
31113;DHT22;17763;48.730;9.136;2023-07-20T12:12:34;23.90;49.80
31113;DHT22;17763;48.730;9.136;2023-07-20T12:15:25;23.90;50.40
31113;DHT22;17763;48.730;9.136;2023-07-20T12:18:02;23.90;51.50
31113;DHT22;17763;48.730;9.136;2023-07-20T12:23:08;24.00;50.50
31113;DHT22;17763;48.730;9.136;2023-07-20T12:25:51;24.00;49.60
31113;DHT22;17763;48.730;9.136;2023-07-20T12:28:19;24.10;50.50
31113;DHT22;17763;48.730;9.136;2023-07-20T12:30:46;24.20;50.80
31113;DHT22;17763;48.730;9.136;2023-07-20T12:33:12;24.40;50.40
31113;DHT22;17763;48.730;9.136;2023-07-20T12:35:41;24.50;52.70
31113;DHT22;17763;48.730;9.136;2023-07-20T12:38:07;24.70;51.60
31113;DHT22;17763;48.730;9.136;2023-07-20T12:40:35;24.70;49.50
31113;DHT22;17763;48.730;9.136;2023-07-20T12:43:06;24.80;51.50
31113;DHT22;17763;48.730;9.136;2023-07-20T12:45:32;24.70;49.50
31113;DHT22;17763;48.730;9.136;2023-07-20T12:47:57;24.60;51.30
31113;DHT22;17763;48.730;9.136;2023-07-20T12:50:23;24.70;52.90
31113;DHT22;17763;48.730;9.136;2023-07-20T12:52:51;24.80;52.60
31113;DHT22;17763;48.730;9.136;2023-07-20T12:55:17;24.70;49.60
31113;DHT22;17763;48.730;9.136;2023-07-20T12:57:46;24.60;49.40
31113;DHT22;17763;48.730;9.136;2023-07-20T13:00:11;24.70;48.90
31113;DHT22;17763;48.730;9.136;2023-07-20T13:02:38;24.80;49.10
31113;DHT22;17763;48.730;9.136;2023-07-20T13:05:04;25.00;49.00
31113;DHT22;17763;48.730;9.136;2023-07-20T13:07:34;25.00;48.80
31113;DHT22;17763;48.730;9.136;2023-07-20T13:10:01;25.00;48.60
31113;DHT22;17763;48.730;9.136;2023-07-20T13:12:28;25.10;48.30
31113;DHT22;17763;48.730;9.136;2023-07-20T13:14:55;25.10;48.50
31113;DHT22;17763;48.730;9.136;2023-07-20T13:17:22;25.10;48.90
31113;DHT22;17763;48.730;9.136;2023-07-20T13:19:48;25.10;48.80
31113;DHT22;17763;48.730;9.136;2023-07-20T13:22:15;25.10;47.90
31113;DHT22;17763;48.730;9.136;2023-07-20T13:24:44;25.00;47.50
31113;DHT22;17763;48.730;9.136;2023-07-20T13:27:09;25.00;48.70
31113;DHT22;17763;48.730;9.136;2023-07-20T13:29:35;25.00;49.40
31113;DHT22;17763;48.730;9.136;2023-07-20T13:32:01;24.80;48.40
31113;DHT22;17763;48.730;9.136;2023-07-20T13:34:28;24.80;49.30
31113;DHT22;17763;48.730;9.136;2023-07-20T13:36:54;25.00;48.90
31113;DHT22;17763;48.730;9.136;2023-07-20T13:39:20;25.00;48.40
31113;DHT22;17763;48.730;9.136;2023-07-20T13:41:49;25.10;48.60
31113;DHT22;17763;48.730;9.136;2023-07-20T13:44:17;25.10;48.60
31113;DHT22;17763;48.730;9.136;2023-07-20T13:46:43;25.30;48.50
31113;DHT22;17763;48.730;9.136;2023-07-20T13:49:09;25.30;48.50
31113;DHT22;17763;48.730;9.136;2023-07-20T13:51:36;25.20;47.70
31113;DHT22;17763;48.730;9.136;2023-07-20T13:54:05;25.40;47.00
31113;DHT22;17763;48.730;9.136;2023-07-20T13:56:37;25.40;47.20
31113;DHT22;17763;48.730;9.136;2023-07-20T13:59:03;25.50;46.30
31113;DHT22;17763;48.730;9.136;2023-07-20T14:01:28;25.30;46.10
31113;DHT22;17763;48.730;9.136;2023-07-20T14:03:58;25.30;47.00
31113;DHT22;17763;48.730;9.136;2023-07-20T14:06:24;25.40;47.70
31113;DHT22;17763;48.730;9.136;2023-07-20T14:08:49;25.40;46.50
31113;DHT22;17763;48.730;9.136;2023-07-20T14:11:18;25.40;46.20
31113;DHT22;17763;48.730;9.136;2023-07-20T14:13:53;25.30;46.10
31113;DHT22;17763;48.730;9.136;2023-07-20T14:16:19;25.40;45.90
31113;DHT22;17763;48.730;9.136;2023-07-20T14:18:45;25.40;46.00
31113;DHT22;17763;48.730;9.136;2023-07-20T14:21:22;25.30;45.80
31113;DHT22;17763;48.730;9.136;2023-07-20T14:23:51;25.40;45.60
31113;DHT22;17763;48.730;9.136;2023-07-20T14:26:17;25.50;45.40
31113;DHT22;17763;48.730;9.136;2023-07-20T14:28:45;25.40;45.20
31113;DHT22;17763;48.730;9.136;2023-07-20T14:31:13;25.50;46.20
31113;DHT22;17763;48.730;9.136;2023-07-20T14:33:43;25.50;46.00
31113;DHT22;17763;48.730;9.136;2023-07-20T14:36:32;25.50;45.30
31113;DHT22;17763;48.730;9.136;2023-07-20T14:38:58;25.60;45.90
31113;DHT22;17763;48.730;9.136;2023-07-20T14:41:23;25.70;46.20
31113;DHT22;17763;48.730;9.136;2023-07-20T14:43:51;25.70;46.60
31113;DHT22;17763;48.730;9.136;2023-07-20T14:46:17;25.70;46.20
31113;DHT22;17763;48.730;9.136;2023-07-20T14:48:46;25.70;45.50
31113;DHT22;17763;48.730;9.136;2023-07-20T14:51:12;25.80;46.40
31113;DHT22;17763;48.730;9.136;2023-07-20T14:53:38;25.90;46.80
31113;DHT22;17763;48.730;9.136;2023-07-20T14:56:03;25.90;44.60
31113;DHT22;17763;48.730;9.136;2023-07-20T14:58:31;26.00;46.40
31113;DHT22;17763;48.730;9.136;2023-07-20T15:00:59;26.10;46.70
31113;DHT22;17763;48.730;9.136;2023-07-20T15:03:27;26.20;45.70
31113;DHT22;17763;48.730;9.136;2023-07-20T15:05:54;26.40;46.30
31113;DHT22;17763;48.730;9.136;2023-07-20T15:08:21;26.50;45.50
31113;DHT22;17763;48.730;9.136;2023-07-20T15:10:54;26.60;45.10
31113;DHT22;17763;48.730;9.136;2023-07-20T15:13:20;26.70;45.60
31113;DHT22;17763;48.730;9.136;2023-07-20T15:15:46;26.60;45.30
31113;DHT22;17763;48.730;9.136;2023-07-20T15:18:11;26.50;44.40
31113;DHT22;17763;48.730;9.136;2023-07-20T15:20:37;26.60;44.50
31113;DHT22;17763;48.730;9.136;2023-07-20T15:23:05;26.60;44.50
31113;DHT22;17763;48.730;9.136;2023-07-20T15:25:31;26.70;44.60
31113;DHT22;17763;48.730;9.136;2023-07-20T15:28:01;26.80;43.70
31113;DHT22;17763;48.730;9.136;2023-07-20T15:30:30;26.70;44.40
31113;DHT22;17763;48.730;9.136;2023-07-20T15:32:58;26.70;44.20
31113;DHT22;17763;48.730;9.136;2023-07-20T15:35:24;26.60;45.20
31113;DHT22;17763;48.730;9.136;2023-07-20T15:37:49;26.60;45.50
31113;DHT22;17763;48.730;9.136;2023-07-20T15:40:17;26.70;44.80
31113;DHT22;17763;48.730;9.136;2023-07-20T15:42:43;26.70;45.60
31113;DHT22;17763;48.730;9.136;2023-07-20T15:45:11;26.80;45.30
31113;DHT22;17763;48.730;9.136;2023-07-20T15:47:36;26.90;45.50
31113;DHT22;17763;48.730;9.136;2023-07-20T15:50:03;27.10;46.40
31113;DHT22;17763;48.730;9.136;2023-07-20T15:52:31;27.00;48.00
31113;DHT22;17763;48.730;9.136;2023-07-20T15:55:01;27.10;49.20